Time;durP1;ratioP1;P1;durP2;ratioP2;P2;SDS_P1;SDS_P2;PMS_P1;PMS_P2;Temp;Humidity;BMP_temperature;BMP_pressure;BME280_temperature;BME280_humidity;BME280_pressure;Samples;Min_cycle;Max_cycle;Signal;HPM_P1;HPM_P2
2024/03/25 00:00:24;;;;;;;3.23;2.20;;;6.50;99.90;;;;;;6155535;23;20406;-62
2024/03/25 00:02:51;;;;;;;3.23;2.67;;;6.50;99.90;;;;;;6154241;23;20505;-61
2024/03/25 00:05:22;;;;;;;3.30;2.70;;;6.50;99.90;;;;;;6155037;23;20434;-62
2024/03/25 00:07:48;;;;;;;3.60;2.57;;;6.50;99.90;;;;;;6155116;23;20391;-62
2024/03/25 00:10:15;;;;;;;4.83;2.23;;;6.50;99.90;;;;;;6154988;23;20406;-62
2024/03/25 00:12:41;;;;;;;4.60;3.70;;;6.50;99.90;;;;;;6154398;23;20442;-61
2024/03/25 00:15:09;;;;;;;4.10;2.67;;;6.50;99.90;;;;;;6154224;23;21004;-62
2024/03/25 00:17:35;;;;;;;4.17;3.33;;;6.60;99.90;;;;;;6155369;23;20406;-60
2024/03/25 00:20:05;;;;;;;5.80;2.70;;;6.60;99.90;;;;;;6154951;23;21084;-63
2024/03/25 00:22:35;;;;;;;4.33;3.10;;;6.70;99.90;;;;;;6154479;23;20422;-60
2024/03/25 00:25:02;;;;;;;4.60;2.97;;;6.80;99.90;;;;;;6154803;23;20406;-62
2024/03/25 00:27:29;;;;;;;3.90;3.20;;;6.70;99.90;;;;;;6154930;23;20406;-60
2024/03/25 00:29:56;;;;;;;3.90;3.10;;;6.80;99.90;;;;;;6155212;23;20497;-63
2024/03/25 00:32:22;;;;;;;6.73;3.43;;;6.90;99.90;;;;;;6154573;23;20450;-62
2024/03/25 00:34:49;;;;;;;4.20;3.53;;;6.90;99.90;;;;;;6154823;23;20417;-61
2024/03/25 00:37:15;;;;;;;5.20;3.70;;;7.00;99.90;;;;;;6155015;23;20434;-62
2024/03/25 00:39:43;;;;;;;5.90;3.20;;;7.00;99.90;;;;;;6154855;23;20731;-61
2024/03/25 00:42:09;;;;;;;7.37;4.10;;;7.00;99.90;;;;;;6154612;23;20454;-62
2024/03/25 00:44:36;;;;;;;6.37;4.27;;;6.90;99.90;;;;;;6154570;23;20916;-61
2024/03/25 00:47:02;;;;;;;8.23;3.97;;;6.90;99.90;;;;;;6154671;23;20771;-66
2024/03/25 00:49:29;;;;;;;5.63;3.77;;;6.90;99.90;;;;;;6155013;23;20889;-62
2024/03/25 00:51:55;;;;;;;4.10;3.37;;;6.80;99.90;;;;;;6154224;23;20510;-62
2024/03/25 00:54:23;;;;;;;4.20;2.90;;;6.90;99.90;;;;;;6154261;23;20517;-60
2024/03/25 00:56:51;;;;;;;5.77;3.47;;;6.80;99.90;;;;;;6154750;23;20394;-63
2024/03/25 00:59:18;;;;;;;3.60;3.10;;;6.80;99.90;;;;;;6154434;23;20398;-61
2024/03/25 01:01:44;;;;;;;8.10;3.40;;;6.80;99.90;;;;;;6154340;23;20505;-61
2024/03/25 01:04:11;;;;;;;4.37;3.07;;;6.80;99.90;;;;;;6154510;23;20441;-60
2024/03/25 01:06:37;;;;;;;5.80;3.17;;;6.90;99.90;;;;;;6154682;23;20407;-61
2024/03/25 01:09:04;;;;;;;5.17;3.67;;;6.80;99.90;;;;;;6154674;23;20403;-61
2024/03/25 01:11:30;;;;;;;3.33;2.43;;;6.80;99.90;;;;;;6154271;23;20405;-64
2024/03/25 01:13:59;;;;;;;4.57;3.53;;;6.80;99.90;;;;;;6154369;23;20520;-66
2024/03/25 01:16:24;;;;;;;5.90;4.57;;;6.80;99.90;;;;;;6154427;23;20469;-60
2024/03/25 01:18:51;;;;;;;5.60;3.37;;;6.70;99.90;;;;;;6154703;23;20406;-61
2024/03/25 01:21:17;;;;;;;4.93;3.50;;;6.80;99.90;;;;;;6154259;23;20203;-62
2024/03/25 01:23:44;;;;;;;7.70;3.83;;;6.80;99.90;;;;;;6154148;23;20619;-61
2024/03/25 01:26:10;;;;;;;5.03;3.00;;;6.80;99.90;;;;;;6153332;23;20434;-60
2024/03/25 01:28:37;;;;;;;5.83;3.27;;;6.80;99.90;;;;;;6154468;23;20441;-61
2024/03/25 01:31:05;;;;;;;8.83;4.50;;;6.80;99.90;;;;;;6154559;23;20453;-61
2024/03/25 01:33:31;;;;;;;4.83;3.80;;;6.80;99.90;;;;;;6154329;23;20442;-62
2024/03/25 01:35:57;;;;;;;3.90;3.27;;;6.80;99.90;;;;;;6154464;23;20438;-58
2024/03/25 01:38:24;;;;;;;6.97;3.50;;;6.80;99.90;;;;;;6154229;23;20420;-60
2024/03/25 01:40:50;;;;;;;5.00;2.93;;;6.70;99.90;;;;;;6153873;23;20907;-62
2024/03/25 01:43:17;;;;;;;4.10;3.33;;;6.70;99.90;;;;;;6154246;23;20426;-60
2024/03/25 01:45:43;;;;;;;4.80;3.07;;;6.70;99.90;;;;;;6154230;23;20434;-60
2024/03/25 01:48:13;;;;;;;6.43;2.77;;;6.70;99.90;;;;;;6153998;23;20402;-62
2024/03/25 01:50:44;;;;;;;4.90;2.70;;;6.70;99.90;;;;;;6154174;23;20493;-63
2024/03/25 01:53:13;;;;;;;2.43;1.80;;;6.70;99.90;;;;;;6153756;23;20445;-63
2024/03/25 01:55:40;;;;;;;1.77;1.33;;;6.60;99.90;;;;;;6154034;23;20493;-61
2024/03/25 01:58:07;;;;;;;3.57;1.60;;;6.50;99.90;;;;;;6154515;23;20426;-61
2024/03/25 02:00:33;;;;;;;2.40;1.33;;;6.40;99.90;;;;;;6154451;23;20782;-61
2024/03/25 02:03:00;;;;;;;3.03;1.57;;;6.30;99.90;;;;;;6153674;23;20424;-61
2024/03/25 02:05:27;;;;;;;1.33;0.90;;;6.30;99.90;;;;;;6154122;23;20434;-63
2024/03/25 02:07:54;;;;;;;2.13;1.63;;;6.20;99.90;;;;;;6153680;23;20442;-62
2024/03/25 02:10:21;;;;;;;2.93;1.50;;;6.20;99.90;;;;;;6153962;23;20490;-62
2024/03/25 02:12:49;;;;;;;1.87;1.20;;;6.10;99.90;;;;;;6153331;23;20426;-62
2024/03/25 02:15:15;;;;;;;3.30;1.27;;;6.00;99.90;;;;;;6153577;23;20975;-61
2024/03/25 02:17:42;;;;;;;2.07;1.00;;;6.10;99.90;;;;;;6153857;23;20460;-62
2024/03/25 02:20:11;;;;;;;2.90;1.27;;;6.10;99.90;;;;;;6154349;23;20402;-61
2024/03/25 02:22:40;;;;;;;1.77;1.27;;;6.10;99.90;;;;;;6153883;23;20437;-64
2024/03/25 02:25:08;;;;;;;2.53;1.20;;;6.10;99.90;;;;;;6154766;23;20968;-63
2024/03/25 02:27:37;;;;;;;1.53;1.27;;;6.20;99.90;;;;;;6154137;23;20406;-61
2024/03/25 02:30:05;;;;;;;19.13;8.43;;;6.20;99.90;;;;;;6154165;23;20968;-61
2024/03/25 02:32:32;;;;;;;3.40;2.40;;;6.20;99.90;;;;;;6153525;23;20426;-62
2024/03/25 02:34:58;;;;;;;5.20;4.23;;;6.20;99.90;;;;;;6154088;23;20618;-63
2024/03/25 02:37:26;;;;;;;3.37;2.30;;;6.20;99.90;;;;;;6155378;23;20406;-62
2024/03/25 02:39:53;;;;;;;2.33;1.77;;;6.10;99.90;;;;;;6154246;23;20441;-60
2024/03/25 02:42:20;;;;;;;3.23;1.67;;;6.10;99.90;;;;;;6154917;23;20820;-61
2024/03/25 02:44:48;;;;;;;2.67;1.43;;;6.20;99.90;;;;;;6154390;23;20398;-59
2024/03/25 02:47:15;;;;;;;3.87;2.40;;;6.20;99.90;;;;;;6155807;23;20414;-62
2024/03/25 02:49:43;;;;;;;4.70;2.23;;;6.20;99.90;;;;;;6154088;23;20434;-61
2024/03/25 02:52:09;;;;;;;5.17;3.40;;;6.20;99.90;;;;;;6155535;23;20426;-61
2024/03/25 02:54:35;;;;;;;4.70;2.77;;;6.20;99.90;;;;;;6155813;23;20441;-61
2024/03/25 02:57:04;;;;;;;4.20;2.20;;;6.20;99.90;;;;;;6156097;23;20456;-58
2024/03/25 02:59:30;;;;;;;4.77;3.47;;;6.20;99.90;;;;;;6155294;23;20182;-61
2024/03/25 03:01:58;;;;;;;2.47;1.90;;;6.20;99.90;;;;;;6156061;23;20422;-61
2024/03/25 03:04:24;;;;;;;7.93;2.80;;;6.20;99.90;;;;;;6155196;23;20233;-60
2024/03/25 03:06:51;;;;;;;4.63;3.47;;;6.20;99.90;;;;;;6155847;23;20402;-62
2024/03/25 03:09:17;;;;;;;8.00;3.17;;;6.20;99.90;;;;;;6156044;23;20178;-62
2024/03/25 03:11:43;;;;;;;3.37;2.03;;;6.30;99.90;;;;;;6155725;23;20433;-60
2024/03/25 03:14:09;;;;;;;5.13;2.40;;;6.30;99.90;;;;;;6155036;23;20740;-61
2024/03/25 03:16:36;;;;;;;3.63;1.93;;;6.30;99.90;;;;;;6155465;23;20441;-61
2024/03/25 03:19:04;;;;;;;2.07;1.47;;;6.30;99.90;;;;;;6155807;23;20483;-61
2024/03/25 03:21:31;;;;;;;3.10;2.47;;;6.20;99.90;;;;;;6155137;23;20928;-62
2024/03/25 03:23:57;;;;;;;7.27;3.40;;;6.20;99.90;;;;;;6155131;23;20440;-62
2024/03/25 03:26:26;;;;;;;2.97;1.87;;;6.20;99.90;;;;;;6155370;23;20402;-61
2024/03/25 03:28:52;;;;;;;3.30;2.10;;;6.10;99.90;;;;;;6155679;23;20838;-62
2024/03/25 03:31:21;;;;;;;3.00;1.83;;;6.20;99.90;;;;;;6155496;23;20401;-62
2024/03/25 03:33:47;;;;;;;3.93;2.10;;;6.10;99.90;;;;;;6155075;23;20451;-62
2024/03/25 03:36:16;;;;;;;2.50;1.80;;;6.10;99.90;;;;;;6155159;23;20438;-62
2024/03/25 03:38:42;;;;;;;4.03;2.27;;;6.10;99.90;;;;;;6155316;23;20393;-61
2024/03/25 03:41:09;;;;;;;4.37;1.70;;;6.10;99.90;;;;;;6155267;23;20402;-61
2024/03/25 03:43:34;;;;;;;3.77;1.73;;;6.10;99.90;;;;;;6155286;23;20908;-61
2024/03/25 03:46:01;;;;;;;3.40;2.10;;;6.10;99.90;;;;;;6155521;23;20494;-64
2024/03/25 03:48:27;;;;;;;3.73;2.10;;;6.10;99.90;;;;;;6154855;23;20186;-61
2024/03/25 03:50:54;;;;;;;4.20;2.90;;;6.20;99.90;;;;;;6155194;23;20492;-63
2024/03/25 03:53:22;;;;;;;3.00;1.73;;;6.20;99.90;;;;;;6154679;23;20501;-62
2024/03/25 03:55:54;;;;;;;5.87;2.17;;;6.20;99.90;;;;;;6155091;23;21012;-61
2024/03/25 03:58:20;;;;;;;4.40;1.53;;;6.20;99.90;;;;;;6155623;23;20387;-61
2024/03/25 04:00:47;;;;;;;4.07;1.90;;;6.20;99.90;;;;;;6154862;23;20446;-60
2024/03/25 04:03:13;;;;;;;4.63;2.73;;;6.20;99.90;;;;;;6155064;23;20501;-62
2024/03/25 04:05:40;;;;;;;3.40;1.53;;;6.20;99.90;;;;;;6155000;23;20425;-59
2024/03/25 04:08:07;;;;;;;6.10;1.57;;;6.20;99.90;;;;;;6154905;23;20406;-63
2024/03/25 04:10:36;;;;;;;3.07;1.87;;;6.20;99.90;;;;;;6155287;23;20412;-63
2024/03/25 04:13:02;;;;;;;2.47;1.67;;;6.10;99.90;;;;;;6154673;23;20756;-62
2024/03/25 04:15:29;;;;;;;4.30;1.93;;;6.20;99.90;;;;;;6154840;23;20437;-62
2024/03/25 04:17:55;;;;;;;1.60;1.50;;;6.10;99.90;;;;;;6155149;23;20437;-62
2024/03/25 04:20:21;;;;;;;2.10;1.60;;;6.10;99.90;;;;;;6154345;23;20429;-62
2024/03/25 04:22:47;;;;;;;2.60;1.67;;;6.20;99.90;;;;;;6154658;23;20429;-61
2024/03/25 04:25:15;;;;;;;4.70;1.77;;;6.20;99.90;;;;;;6154828;23;20399;-61
2024/03/25 04:27:43;;;;;;;2.67;1.53;;;6.20;99.90;;;;;;6154841;23;20274;-61
2024/03/25 04:30:11;;;;;;;5.53;1.93;;;6.30;99.90;;;;;;6154884;23;20418;-62
2024/03/25 04:32:38;;;;;;;2.93;2.07;;;6.20;99.90;;;;;;6154408;23;20501;-61
2024/03/25 04:35:06;;;;;;;3.40;2.00;;;6.20;99.90;;;;;;6154545;23;20473;-63
